sensor_id;sensor_type;location;lat;lon;timestamp;P1;durP1;ratioP1;P2;durP2;ratioP2
3149;SDS011;32503;47.748;8.960;2023-02-12T00:01:14;40.40;;;20.80;;
3149;SDS011;32503;47.748;8.960;2023-02-12T00:03:42;43.53;;;21.23;;
3149;SDS011;32503;47.748;8.960;2023-02-12T00:06:10;42.20;;;21.40;;
3149;SDS011;32503;47.748;8.960;2023-02-12T00:08:38;40.53;;;20.43;;
3149;SDS011;32503;47.748;8.960;2023-02-12T00:11:06;43.80;;;22.23;;
3149;SDS011;32503;47.748;8.960;2023-02-12T00:13:35;35.90;;;20.63;;
3149;SDS011;32503;47.748;8.960;2023-02-12T00:16:03;46.83;;;21.13;;
3149;SDS011;32503;47.748;8.960;2023-02-12T00:18:32;35.97;;;19.80;;
3149;SDS011;32503;47.748;8.960;2023-02-12T00:20:59;38.77;;;20.80;;
3149;SDS011;32503;47.748;8.960;2023-02-12T00:23:29;42.33;;;18.57;;
3149;SDS011;32503;47.748;8.960;2023-02-12T00:25:56;42.40;;;20.03;;
3149;SDS011;32503;47.748;8.960;2023-02-12T00:28:23;48.60;;;22.50;;
3149;SDS011;32503;47.748;8.960;2023-02-12T00:30:50;47.47;;;21.40;;
3149;SDS011;32503;47.748;8.960;2023-02-12T00:33:17;41.80;;;21.93;;
3149;SDS011;32503;47.748;8.960;2023-02-12T00:35:44;38.03;;;20.37;;
3149;SDS011;32503;47.748;8.960;2023-02-12T00:38:19;47.90;;;19.73;;
3149;SDS011;32503;47.748;8.960;2023-02-12T00:40:48;41.83;;;20.53;;
3149;SDS011;32503;47.748;8.960;2023-02-12T00:43:15;43.93;;;21.20;;
3149;SDS011;32503;47.748;8.960;2023-02-12T00:45:43;44.63;;;23.17;;
3149;SDS011;32503;47.748;8.960;2023-02-12T00:48:10;37.60;;;19.90;;
3149;SDS011;32503;47.748;8.960;2023-02-12T00:50:37;43.60;;;19.07;;
3149;SDS011;32503;47.748;8.960;2023-02-12T00:53:05;38.77;;;20.33;;
3149;SDS011;32503;47.748;8.960;2023-02-12T00:55:32;38.23;;;20.83;;
3149;SDS011;32503;47.748;8.960;2023-02-12T00:58:00;32.80;;;18.27;;
3149;SDS011;32503;47.748;8.960;2023-02-12T01:00:27;42.60;;;21.10;;
3149;SDS011;32503;47.748;8.960;2023-02-12T01:02:55;42.13;;;20.03;;
3149;SDS011;32503;47.748;8.960;2023-02-12T01:05:22;40.77;;;21.13;;
3149;SDS011;32503;47.748;8.960;2023-02-12T01:07:49;37.00;;;20.87;;
3149;SDS011;32503;47.748;8.960;2023-02-12T01:10:17;34.17;;;19.40;;
3149;SDS011;32503;47.748;8.960;2023-02-12T01:12:46;47.93;;;21.60;;
3149;SDS011;32503;47.748;8.960;2023-02-12T01:15:15;34.47;;;20.37;;
3149;SDS011;32503;47.748;8.960;2023-02-12T01:17:44;43.93;;;22.87;;
3149;SDS011;32503;47.748;8.960;2023-02-12T01:20:11;40.47;;;20.23;;
3149;SDS011;32503;47.748;8.960;2023-02-12T01:22:42;38.60;;;19.33;;
3149;SDS011;32503;47.748;8.960;2023-02-12T01:25:09;37.50;;;21.63;;
3149;SDS011;32503;47.748;8.960;2023-02-12T01:27:37;44.23;;;20.60;;
3149;SDS011;32503;47.748;8.960;2023-02-12T01:30:05;35.03;;;18.53;;
3149;SDS011;32503;47.748;8.960;2023-02-12T01:32:37;50.33;;;21.37;;
3149;SDS011;32503;47.748;8.960;2023-02-12T01:35:04;37.43;;;19.53;;
3149;SDS011;32503;47.748;8.960;2023-02-12T01:37:34;43.70;;;19.70;;
3149;SDS011;32503;47.748;8.960;2023-02-12T01:40:03;48.13;;;21.47;;
3149;SDS011;32503;47.748;8.960;2023-02-12T01:42:31;38.30;;;19.10;;
3149;SDS011;32503;47.748;8.960;2023-02-12T01:48:16;39.50;;;21.40;;
3149;SDS011;32503;47.748;8.960;2023-02-12T01:50:45;37.30;;;19.70;;
3149;SDS011;32503;47.748;8.960;2023-02-12T01:53:14;39.20;;;20.93;;
3149;SDS011;32503;47.748;8.960;2023-02-12T01:55:46;38.17;;;20.80;;
3149;SDS011;32503;47.748;8.960;2023-02-12T01:58:14;35.47;;;18.27;;
3149;SDS011;32503;47.748;8.960;2023-02-12T02:00:42;37.70;;;20.17;;
3149;SDS011;32503;47.748;8.960;2023-02-12T02:03:10;34.70;;;19.07;;
3149;SDS011;32503;47.748;8.960;2023-02-12T02:05:42;38.37;;;19.27;;
3149;SDS011;32503;47.748;8.960;2023-02-12T02:08:14;38.80;;;20.27;;
3149;SDS011;32503;47.748;8.960;2023-02-12T02:10:42;38.03;;;20.97;;
3149;SDS011;32503;47.748;8.960;2023-02-12T02:13:09;47.70;;;23.33;;
3149;SDS011;32503;47.748;8.960;2023-02-12T02:15:55;51.60;;;22.53;;
3149;SDS011;32503;47.748;8.960;2023-02-12T02:18:29;51.43;;;24.10;;
3149;SDS011;32503;47.748;8.960;2023-02-12T02:27:48;37.07;;;19.20;;
3149;SDS011;32503;47.748;8.960;2023-02-12T02:30:34;30.53;;;18.53;;
3149;SDS011;32503;47.748;8.960;2023-02-12T02:33:12;37.17;;;19.00;;
3149;SDS011;32503;47.748;8.960;2023-02-12T02:35:52;31.67;;;17.93;;
3149;SDS011;32503;47.748;8.960;2023-02-12T02:38:28;38.10;;;19.50;;
3149;SDS011;32503;47.748;8.960;2023-02-12T02:41:02;41.13;;;19.43;;
3149;SDS011;32503;47.748;8.960;2023-02-12T02:43:34;39.03;;;19.70;;
3149;SDS011;32503;47.748;8.960;2023-02-12T02:46:08;36.23;;;19.57;;
3149;SDS011;32503;47.748;8.960;2023-02-12T02:48:40;41.73;;;20.87;;
3149;SDS011;32503;47.748;8.960;2023-02-12T02:51:15;41.60;;;20.60;;
3149;SDS011;32503;47.748;8.960;2023-02-12T02:53:47;41.23;;;19.27;;
3149;SDS011;32503;47.748;8.960;2023-02-12T02:56:20;49.87;;;23.50;;
3149;SDS011;32503;47.748;8.960;2023-02-12T02:58:50;45.23;;;20.87;;
3149;SDS011;32503;47.748;8.960;2023-02-12T03:01:23;42.37;;;21.27;;
3149;SDS011;32503;47.748;8.960;2023-02-12T03:03:57;42.60;;;20.47;;
3149;SDS011;32503;47.748;8.960;2023-02-12T03:06:29;45.80;;;20.63;;
3149;SDS011;32503;47.748;8.960;2023-02-12T03:09:10;37.93;;;19.33;;
3149;SDS011;32503;47.748;8.960;2023-02-12T03:11:44;38.60;;;19.60;;
3149;SDS011;32503;47.748;8.960;2023-02-12T03:14:13;33.37;;;19.23;;
3149;SDS011;32503;47.748;8.960;2023-02-12T03:16:48;43.80;;;21.00;;
3149;SDS011;32503;47.748;8.960;2023-02-12T03:19:21;49.23;;;21.80;;
3149;SDS011;32503;47.748;8.960;2023-02-12T03:21:52;35.27;;;19.70;;
3149;SDS011;32503;47.748;8.960;2023-02-12T03:24:26;38.80;;;17.57;;
3149;SDS011;32503;47.748;8.960;2023-02-12T03:27:02;33.53;;;19.37;;
3149;SDS011;32503;47.748;8.960;2023-02-12T03:29:34;32.40;;;17.50;;
3149;SDS011;32503;47.748;8.960;2023-02-12T03:32:06;37.87;;;18.97;;
3149;SDS011;32503;47.748;8.960;2023-02-12T03:34:46;34.13;;;19.10;;
3149;SDS011;32503;47.748;8.960;2023-02-12T03:37:20;35.40;;;17.53;;
3149;SDS011;32503;47.748;8.960;2023-02-12T03:39:55;37.93;;;19.20;;
3149;SDS011;32503;47.748;8.960;2023-02-12T03:42:33;39.80;;;18.70;;
3149;SDS011;32503;47.748;8.960;2023-02-12T03:45:08;40.13;;;18.70;;
3149;SDS011;32503;47.748;8.960;2023-02-12T03:47:47;37.67;;;19.27;;
3149;SDS011;32503;47.748;8.960;2023-02-12T03:50:20;38.13;;;18.90;;
3149;SDS011;32503;47.748;8.960;2023-02-12T03:52:53;44.50;;;21.73;;
3149;SDS011;32503;47.748;8.960;2023-02-12T03:55:20;34.90;;;17.77;;
3149;SDS011;32503;47.748;8.960;2023-02-12T03:57:48;38.57;;;20.10;;
3149;SDS011;32503;47.748;8.960;2023-02-12T04:00:21;38.40;;;17.70;;
3149;SDS011;32503;47.748;8.960;2023-02-12T04:02:51;37.73;;;19.10;;
3149;SDS011;32503;47.748;8.960;2023-02-12T04:05:20;44.30;;;23.37;;
3149;SDS011;32503;47.748;8.960;2023-02-12T04:07:50;56.53;;;23.53;;
3149;SDS011;32503;47.748;8.960;2023-02-12T04:10:20;48.70;;;22.50;;
3149;SDS011;32503;47.748;8.960;2023-02-12T04:12:56;53.13;;;23.43;;
3149;SDS011;32503;47.748;8.960;2023-02-12T04:15:43;40.03;;;20.67;;
3149;SDS011;32503;47.748;8.960;2023-02-12T04:18:25;40.47;;;19.90;;
3149;SDS011;32503;47.748;8.960;2023-02-12T04:21:03;43.47;;;22.47;;
3149;SDS011;32503;47.748;8.960;2023-02-12T04:23:42;46.87;;;23.77;;
3149;SDS011;32503;47.748;8.960;2023-02-12T04:26:17;37.07;;;19.37;;
3149;SDS011;32503;47.748;8.960;2023-02-12T04:29:00;42.10;;;20.43;;
3149;SDS011;32503;47.748;8.960;2023-02-12T04:31:40;37.37;;;19.27;;
3149;SDS011;32503;47.748;8.960;2023-02-12T04:34:16;41.43;;;20.23;;
3149;SDS011;32503;47.748;8.960;2023-02-12T04:36:53;45.03;;;21.73;;
3149;SDS011;32503;47.748;8.960;2023-02-12T04:39:28;43.63;;;21.47;;
3149;SDS011;32503;47.748;8.960;2023-02-12T04:41:58;35.93;;;18.60;;
3149;SDS011;32503;47.748;8.960;2023-02-12T04:44:29;44.20;;;21.17;;
3149;SDS011;32503;47.748;8.960;2023-02-12T04:46:58;40.67;;;22.73;;
3149;SDS011;32503;47.748;8.960;2023-02-12T04:49:27;43.93;;;20.50;;
3149;SDS011;32503;47.748;8.960;2023-02-12T04:51:54;40.77;;;19.77;;
3149;SDS011;32503;47.748;8.960;2023-02-12T04:54:22;49.73;;;21.47;;
3149;SDS011;32503;47.748;8.960;2023-02-12T04:56:50;33.20;;;19.60;;
3149;SDS011;32503;47.748;8.960;2023-02-12T04:59:17;44.67;;;21.37;;
3149;SDS011;32503;47.748;8.960;2023-02-12T05:01:44;40.40;;;19.10;;
3149;SDS011;32503;47.748;8.960;2023-02-12T05:04:12;35.30;;;18.90;;
3149;SDS011;32503;47.748;8.960;2023-02-12T05:06:43;41.67;;;21.70;;
3149;SDS011;32503;47.748;8.960;2023-02-12T05:09:12;36.30;;;18.33;;
3149;SDS011;32503;47.748;8.960;2023-02-12T05:11:41;35.13;;;17.53;;
3149;SDS011;32503;47.748;8.960;2023-02-12T05:14:08;35.93;;;20.40;;
3149;SDS011;32503;47.748;8.960;2023-02-12T05:16:35;39.07;;;20.13;;
3149;SDS011;32503;47.748;8.960;2023-02-12T05:19:02;39.17;;;19.37;;
3149;SDS011;32503;47.748;8.960;2023-02-12T05:21:29;39.03;;;17.70;;
3149;SDS011;32503;47.748;8.960;2023-02-12T05:23:59;41.77;;;21.50;;
3149;SDS011;32503;47.748;8.960;2023-02-12T05:26:27;49.33;;;20.80;;
3149;SDS011;32503;47.748;8.960;2023-02-12T05:28:54;38.17;;;19.93;;
3149;SDS011;32503;47.748;8.960;2023-02-12T05:31:21;34.07;;;18.30;;
3149;SDS011;32503;47.748;8.960;2023-02-12T05:33:48;37.43;;;20.60;;
3149;SDS011;32503;47.748;8.960;2023-02-12T05:36:16;38.67;;;18.50;;
3149;SDS011;32503;47.748;8.960;2023-02-12T05:38:46;31.30;;;17.73;;
3149;SDS011;32503;47.748;8.960;2023-02-12T05:41:16;33.10;;;18.17;;
3149;SDS011;32503;47.748;8.960;2023-02-12T05:43:45;27.93;;;16.60;;
3149;SDS011;32503;47.748;8.960;2023-02-12T05:46:12;33.13;;;19.40;;
3149;SDS011;32503;47.748;8.960;2023-02-12T05:48:39;31.67;;;17.47;;
3149;SDS011;32503;47.748;8.960;2023-02-12T05:51:07;42.20;;;20.03;;
3149;SDS011;32503;47.748;8.960;2023-02-12T05:53:36;33.33;;;21.77;;
3149;SDS011;32503;47.748;8.960;2023-02-12T05:56:06;40.43;;;20.27;;
3149;SDS011;32503;47.748;8.960;2023-02-12T05:58:36;43.40;;;18.60;;
3149;SDS011;32503;47.748;8.960;2023-02-12T06:01:08;38.00;;;18.97;;
3149;SDS011;32503;47.748;8.960;2023-02-12T06:03:38;44.40;;;19.30;;
3149;SDS011;32503;47.748;8.960;2023-02-12T06:06:05;28.17;;;17.30;;
3149;SDS011;32503;47.748;8.960;2023-02-12T06:08:33;27.17;;;15.77;;
3149;SDS011;32503;47.748;8.960;2023-02-12T06:11:00;33.73;;;17.37;;
3149;SDS011;32503;47.748;8.960;2023-02-12T06:13:29;31.33;;;17.67;;
3149;SDS011;32503;47.748;8.960;2023-02-12T06:15:58;35.77;;;17.77;;
3149;SDS011;32503;47.748;8.960;2023-02-12T06:18:26;39.07;;;17.77;;
3149;SDS011;32503;47.748;8.960;2023-02-12T06:20:53;41.90;;;19.00;;
3149;SDS011;32503;47.748;8.960;2023-02-12T06:23:20;32.83;;;17.97;;
3149;SDS011;32503;47.748;8.960;2023-02-12T06:25:48;36.37;;;19.10;;
3149;SDS011;32503;47.748;8.960;2023-02-12T06:28:16;31.33;;;18.10;;
3149;SDS011;32503;47.748;8.960;2023-02-12T06:30:43;38.43;;;19.50;;
3149;SDS011;32503;47.748;8.960;2023-02-12T06:33:11;34.77;;;17.00;;
3149;SDS011;32503;47.748;8.960;2023-02-12T06:35:38;35.73;;;18.17;;
3149;SDS011;32503;47.748;8.960;2023-02-12T06:38:05;33.83;;;19.10;;
3149;SDS011;32503;47.748;8.960;2023-02-12T06:40:33;42.17;;;18.33;;
3149;SDS011;32503;47.748;8.960;2023-02-12T06:43:00;32.10;;;17.50;;
3149;SDS011;32503;47.748;8.960;2023-02-12T06:45:27;48.57;;;21.30;;
3149;SDS011;32503;47.748;8.960;2023-02-12T06:47:54;38.83;;;20.63;;
3149;SDS011;32503;47.748;8.960;2023-02-12T06:50:23;28.53;;;17.80;;
3149;SDS011;32503;47.748;8.960;2023-02-12T06:52:50;42.30;;;19.93;;
3149;SDS011;32503;47.748;8.960;2023-02-12T06:55:17;33.17;;;18.90;;
3149;SDS011;32503;47.748;8.960;2023-02-12T06:57:44;40.53;;;20.47;;
3149;SDS011;32503;47.748;8.960;2023-02-12T07:00:12;40.03;;;18.70;;
3149;SDS011;32503;47.748;8.960;2023-02-12T07:02:39;36.13;;;18.57;;
3149;SDS011;32503;47.748;8.960;2023-02-12T07:05:07;39.57;;;20.57;;
3149;SDS011;32503;47.748;8.960;2023-02-12T07:07:35;47.40;;;23.98;;
3149;SDS011;32503;47.748;8.960;2023-02-12T07:10:03;51.20;;;24.40;;
3149;SDS011;32503;47.748;8.960;2023-02-12T07:12:32;43.80;;;22.13;;
3149;SDS011;32503;47.748;8.960;2023-02-12T07:14:59;41.03;;;19.50;;
3149;SDS011;32503;47.748;8.960;2023-02-12T07:17:27;49.87;;;20.80;;
3149;SDS011;32503;47.748;8.960;2023-02-12T07:19:55;41.40;;;22.23;;
3149;SDS011;32503;47.748;8.960;2023-02-12T07:22:22;44.00;;;21.93;;
3149;SDS011;32503;47.748;8.960;2023-02-12T07:24:50;42.83;;;21.20;;
3149;SDS011;32503;47.748;8.960;2023-02-12T07:27:17;39.70;;;19.60;;
3149;SDS011;32503;47.748;8.960;2023-02-12T07:29:44;31.53;;;19.07;;
3149;SDS011;32503;47.748;8.960;2023-02-12T07:32:11;37.30;;;21.33;;
3149;SDS011;32503;47.748;8.960;2023-02-12T07:34:38;43.50;;;21.37;;
3149;SDS011;32503;47.748;8.960;2023-02-12T07:37:05;46.57;;;23.40;;
3149;SDS011;32503;47.748;8.960;2023-02-12T07:39:32;31.40;;;19.50;;
3149;SDS011;32503;47.748;8.960;2023-02-12T07:42:01;31.00;;;18.50;;
3149;SDS011;32503;47.748;8.960;2023-02-12T07:44:28;33.50;;;19.37;;
3149;SDS011;32503;47.748;8.960;2023-02-12T07:46:56;36.43;;;20.80;;
3149;SDS011;32503;47.748;8.960;2023-02-12T07:49:23;35.20;;;20.87;;
3149;SDS011;32503;47.748;8.960;2023-02-12T07:51:50;35.03;;;20.30;;
3149;SDS011;32503;47.748;8.960;2023-02-12T07:54:19;40.80;;;23.10;;
3149;SDS011;32503;47.748;8.960;2023-02-12T07:56:46;39.77;;;21.77;;
3149;SDS011;32503;47.748;8.960;2023-02-12T07:59:15;31.50;;;19.60;;
3149;SDS011;32503;47.748;8.960;2023-02-12T08:01:44;42.83;;;21.13;;
3149;SDS011;32503;47.748;8.960;2023-02-12T08:04:14;36.50;;;21.77;;
3149;SDS011;32503;47.748;8.960;2023-02-12T08:06:44;32.47;;;19.60;;
3149;SDS011;32503;47.748;8.960;2023-02-12T08:09:14;35.27;;;20.40;;
3149;SDS011;32503;47.748;8.960;2023-02-12T08:11:43;41.53;;;21.70;;
3149;SDS011;32503;47.748;8.960;2023-02-12T08:14:13;37.63;;;20.10;;
3149;SDS011;32503;47.748;8.960;2023-02-12T08:16:43;33.50;;;19.00;;
3149;SDS011;32503;47.748;8.960;2023-02-12T08:19:12;34.37;;;19.20;;
3149;SDS011;32503;47.748;8.960;2023-02-12T08:21:39;33.43;;;18.90;;
3149;SDS011;32503;47.748;8.960;2023-02-12T08:24:08;36.30;;;21.13;;
3149;SDS011;32503;47.748;8.960;2023-02-12T08:26:36;37.50;;;19.97;;
3149;SDS011;32503;47.748;8.960;2023-02-12T08:29:05;37.40;;;23.80;;
3149;SDS011;32503;47.748;8.960;2023-02-12T08:31:37;34.43;;;21.47;;
3149;SDS011;32503;47.748;8.960;2023-02-12T08:34:09;40.57;;;23.27;;
3149;SDS011;32503;47.748;8.960;2023-02-12T08:36:43;42.10;;;23.30;;
3149;SDS011;32503;47.748;8.960;2023-02-12T08:39:11;45.30;;;26.40;;
3149;SDS011;32503;47.748;8.960;2023-02-12T08:41:39;40.17;;;22.47;;
3149;SDS011;32503;47.748;8.960;2023-02-12T08:44:07;47.97;;;24.30;;
3149;SDS011;32503;47.748;8.960;2023-02-12T08:46:37;46.00;;;23.67;;
3149;SDS011;32503;47.748;8.960;2023-02-12T08:49:08;38.40;;;21.87;;
3149;SDS011;32503;47.748;8.960;2023-02-12T08:51:39;46.53;;;22.10;;
3149;SDS011;32503;47.748;8.960;2023-02-12T08:54:09;35.43;;;19.97;;
3149;SDS011;32503;47.748;8.960;2023-02-12T08:56:38;40.47;;;23.70;;
3149;SDS011;32503;47.748;8.960;2023-02-12T08:59:06;39.93;;;26.70;;
3149;SDS011;32503;47.748;8.960;2023-02-12T09:01:35;45.80;;;24.90;;
3149;SDS011;32503;47.748;8.960;2023-02-12T09:04:06;35.40;;;22.20;;
3149;SDS011;32503;47.748;8.960;2023-02-12T09:06:36;33.80;;;21.10;;
3149;SDS011;32503;47.748;8.960;2023-02-12T09:09:03;35.97;;;23.03;;
3149;SDS011;32503;47.748;8.960;2023-02-12T09:11:32;39.90;;;22.87;;
3149;SDS011;32503;47.748;8.960;2023-02-12T09:14:02;40.27;;;23.77;;
3149;SDS011;32503;47.748;8.960;2023-02-12T09:16:33;40.80;;;22.93;;
3149;SDS011;32503;47.748;8.960;2023-02-12T09:19:03;43.40;;;23.80;;
3149;SDS011;32503;47.748;8.960;2023-02-12T09:21:30;46.10;;;25.30;;
3149;SDS011;32503;47.748;8.960;2023-02-12T09:23:59;45.70;;;24.67;;
3149;SDS011;32503;47.748;8.960;2023-02-12T09:26:27;38.87;;;20.80;;
3149;SDS011;32503;47.748;8.960;2023-02-12T09:28:54;35.40;;;20.80;;
3149;SDS011;32503;47.748;8.960;2023-02-12T09:31:22;41.17;;;22.60;;
3149;SDS011;32503;47.748;8.960;2023-02-12T09:33:51;43.93;;;23.07;;
3149;SDS011;32503;47.748;8.960;2023-02-12T09:36:20;44.00;;;23.33;;
3149;SDS011;32503;47.748;8.960;2023-02-12T09:38:48;37.87;;;23.53;;
3149;SDS011;32503;47.748;8.960;2023-02-12T09:41:24;37.00;;;20.77;;
3149;SDS011;32503;47.748;8.960;2023-02-12T09:44:44;39.10;;;22.67;;
3149;SDS011;32503;47.748;8.960;2023-02-12T09:47:17;33.10;;;19.47;;
3149;SDS011;32503;47.748;8.960;2023-02-12T09:52:58;36.00;;;19.60;;
3149;SDS011;32503;47.748;8.960;2023-02-12T09:55:29;31.87;;;18.40;;
3149;SDS011;32503;47.748;8.960;2023-02-12T09:57:59;39.90;;;20.70;;
3149;SDS011;32503;47.748;8.960;2023-02-12T10:00:32;35.83;;;19.30;;
3149;SDS011;32503;47.748;8.960;2023-02-12T10:02:59;38.93;;;20.90;;
3149;SDS011;32503;47.748;8.960;2023-02-12T10:05:31;32.43;;;19.10;;
3149;SDS011;32503;47.748;8.960;2023-02-12T10:08:11;29.70;;;18.60;;
3149;SDS011;32503;47.748;8.960;2023-02-12T10:10:53;35.00;;;17.93;;
3149;SDS011;32503;47.748;8.960;2023-02-12T10:13:35;27.57;;;14.53;;
3149;SDS011;32503;47.748;8.960;2023-02-12T10:16:15;28.60;;;16.33;;
3149;SDS011;32503;47.748;8.960;2023-02-12T10:18:58;23.07;;;15.70;;
3149;SDS011;32503;47.748;8.960;2023-02-12T10:21:44;30.93;;;19.10;;
3149;SDS011;32503;47.748;8.960;2023-02-12T10:24:31;32.50;;;19.73;;
3149;SDS011;32503;47.748;8.960;2023-02-12T10:27:14;36.53;;;20.80;;
3149;SDS011;32503;47.748;8.960;2023-02-12T10:29:45;34.60;;;18.87;;
3149;SDS011;32503;47.748;8.960;2023-02-12T10:32:16;30.80;;;20.03;;
3149;SDS011;32503;47.748;8.960;2023-02-12T10:34:50;28.00;;;18.20;;
3149;SDS011;32503;47.748;8.960;2023-02-12T10:37:21;32.83;;;20.57;;
3149;SDS011;32503;47.748;8.960;2023-02-12T10:39:59;33.07;;;19.20;;
3149;SDS011;32503;47.748;8.960;2023-02-12T10:42:34;34.20;;;20.80;;
3149;SDS011;32503;47.748;8.960;2023-02-12T10:45:08;31.40;;;20.03;;
3149;SDS011;32503;47.748;8.960;2023-02-12T10:47:40;34.90;;;19.57;;
3149;SDS011;32503;47.748;8.960;2023-02-12T10:50:13;25.17;;;15.47;;
3149;SDS011;32503;47.748;8.960;2023-02-12T10:52:48;25.87;;;14.67;;
3149;SDS011;32503;47.748;8.960;2023-02-12T10:55:26;22.47;;;13.83;;
3149;SDS011;32503;47.748;8.960;2023-02-12T10:57:55;19.47;;;12.47;;
3149;SDS011;32503;47.748;8.960;2023-02-12T11:00:24;14.03;;;9.70;;
3149;SDS011;32503;47.748;8.960;2023-02-12T11:03:00;10.60;;;7.33;;
3149;SDS011;32503;47.748;8.960;2023-02-12T11:05:31;11.87;;;8.17;;
3149;SDS011;32503;47.748;8.960;2023-02-12T11:08:01;19.93;;;13.20;;
3149;SDS011;32503;47.748;8.960;2023-02-12T11:10:31;15.53;;;10.40;;
3149;SDS011;32503;47.748;8.960;2023-02-12T11:13:02;8.80;;;7.07;;
3149;SDS011;32503;47.748;8.960;2023-02-12T11:15:34;8.37;;;6.73;;
3149;SDS011;32503;47.748;8.960;2023-02-12T11:18:19;10.97;;;6.90;;
3149;SDS011;32503;47.748;8.960;2023-02-12T11:20:50;10.37;;;7.27;;
3149;SDS011;32503;47.748;8.960;2023-02-12T11:23:22;9.40;;;7.20;;
3149;SDS011;32503;47.748;8.960;2023-02-12T11:25:55;11.07;;;7.80;;
3149;SDS011;32503;47.748;8.960;2023-02-12T11:28:26;10.00;;;7.37;;
3149;SDS011;32503;47.748;8.960;2023-02-12T11:30:55;9.07;;;7.20;;
3149;SDS011;32503;47.748;8.960;2023-02-12T11:33:29;13.70;;;8.87;;
3149;SDS011;32503;47.748;8.960;2023-02-12T11:35:59;8.03;;;7.20;;
3149;SDS011;32503;47.748;8.960;2023-02-12T11:38:32;9.20;;;7.23;;
3149;SDS011;32503;47.748;8.960;2023-02-12T11:41:05;9.83;;;7.60;;
3149;SDS011;32503;47.748;8.960;2023-02-12T11:43:46;9.73;;;7.53;;
3149;SDS011;32503;47.748;8.960;2023-02-12T11:46:17;8.60;;;7.70;;
3149;SDS011;32503;47.748;8.960;2023-02-12T11:48:47;11.20;;;7.30;;
3149;SDS011;32503;47.748;8.960;2023-02-12T11:51:20;11.57;;;7.43;;
3149;SDS011;32503;47.748;8.960;2023-02-12T11:53:51;11.37;;;6.17;;
3149;SDS011;32503;47.748;8.960;2023-02-12T11:56:21;10.60;;;6.87;;
3149;SDS011;32503;47.748;8.960;2023-02-12T11:58:49;7.40;;;6.47;;
3149;SDS011;32503;47.748;8.960;2023-02-12T12:01:17;8.70;;;6.00;;
3149;SDS011;32503;47.748;8.960;2023-02-12T12:03:52;7.40;;;6.67;;
3149;SDS011;32503;47.748;8.960;2023-02-12T12:06:32;9.13;;;6.40;;
3149;SDS011;32503;47.748;8.960;2023-02-12T12:09:04;9.10;;;6.27;;
3149;SDS011;32503;47.748;8.960;2023-02-12T12:11:43;8.43;;;5.73;;
3149;SDS011;32503;47.748;8.960;2023-02-12T12:14:21;5.70;;;4.90;;
3149;SDS011;32503;47.748;8.960;2023-02-12T12:16:53;6.80;;;5.97;;
3149;SDS011;32503;47.748;8.960;2023-02-12T12:19:47;7.80;;;5.27;;
3149;SDS011;32503;47.748;8.960;2023-02-12T12:22:28;7.13;;;6.03;;
3149;SDS011;32503;47.748;8.960;2023-02-12T12:25:07;6.03;;;5.43;;
3149;SDS011;32503;47.748;8.960;2023-02-12T12:27:50;6.07;;;5.50;;
3149;SDS011;32503;47.748;8.960;2023-02-12T12:30:33;5.17;;;4.70;;
3149;SDS011;32503;47.748;8.960;2023-02-12T12:33:19;4.60;;;4.20;;
3149;SDS011;32503;47.748;8.960;2023-02-12T12:36:07;6.97;;;5.57;;
3149;SDS011;32503;47.748;8.960;2023-02-12T12:39:06;6.70;;;4.87;;
3149;SDS011;32503;47.748;8.960;2023-02-12T12:41:53;5.57;;;5.17;;
3149;SDS011;32503;47.748;8.960;2023-02-12T12:47:59;9.47;;;6.70;;
3149;SDS011;32503;47.748;8.960;2023-02-12T12:50:46;6.37;;;5.80;;
3149;SDS011;32503;47.748;8.960;2023-02-12T12:53:35;8.23;;;6.83;;
3149;SDS011;32503;47.748;8.960;2023-02-12T12:59:34;8.23;;;6.47;;
3149;SDS011;32503;47.748;8.960;2023-02-12T13:02:44;6.23;;;5.13;;
3149;SDS011;32503;47.748;8.960;2023-02-12T13:05:57;7.53;;;5.73;;
3149;SDS011;32503;47.748;8.960;2023-02-12T13:08:58;12.03;;;7.10;;
3149;SDS011;32503;47.748;8.960;2023-02-12T13:11:45;5.60;;;5.10;;
3149;SDS011;32503;47.748;8.960;2023-02-12T13:14:30;6.47;;;5.87;;
3149;SDS011;32503;47.748;8.960;2023-02-12T13:17:10;9.77;;;7.63;;
3149;SDS011;32503;47.748;8.960;2023-02-12T13:19:53;7.77;;;6.70;;
3149;SDS011;32503;47.748;8.960;2023-02-12T13:22:31;7.80;;;6.20;;
3149;SDS011;32503;47.748;8.960;2023-02-12T13:25:06;6.60;;;6.00;;
3149;SDS011;32503;47.748;8.960;2023-02-12T13:27:50;6.83;;;6.20;;
3149;SDS011;32503;47.748;8.960;2023-02-12T13:30:19;7.53;;;5.60;;
3149;SDS011;32503;47.748;8.960;2023-02-12T13:33:00;7.83;;;5.60;;
3149;SDS011;32503;47.748;8.960;2023-02-12T13:35:35;6.93;;;5.90;;
3149;SDS011;32503;47.748;8.960;2023-02-12T13:38:07;6.80;;;6.20;;
3149;SDS011;32503;47.748;8.960;2023-02-12T13:40:44;6.93;;;6.27;;
3149;SDS011;32503;47.748;8.960;2023-02-12T13:43:15;6.20;;;5.70;;
3149;SDS011;32503;47.748;8.960;2023-02-12T13:46:02;6.17;;;5.37;;
3149;SDS011;32503;47.748;8.960;2023-02-12T13:48:43;6.57;;;5.87;;
3149;SDS011;32503;47.748;8.960;2023-02-12T13:51:23;6.73;;;6.03;;
3149;SDS011;32503;47.748;8.960;2023-02-12T13:54:10;8.97;;;6.57;;
3149;SDS011;32503;47.748;8.960;2023-02-12T13:56:54;6.20;;;5.43;;
3149;SDS011;32503;47.748;8.960;2023-02-12T13:59:39;7.40;;;6.70;;
3149;SDS011;32503;47.748;8.960;2023-02-12T14:07:59;6.87;;;6.20;;
3149;SDS011;32503;47.748;8.960;2023-02-12T14:10:31;6.03;;;5.43;;
3149;SDS011;32503;47.748;8.960;2023-02-12T14:13:09;6.93;;;5.90;;
3149;SDS011;32503;47.748;8.960;2023-02-12T14:15:46;5.43;;;5.00;;
3149;SDS011;32503;47.748;8.960;2023-02-12T14:18:20;6.00;;;5.40;;
3149;SDS011;32503;47.748;8.960;2023-02-12T14:30:27;7.50;;;5.93;;
3149;SDS011;32503;47.748;8.960;2023-02-12T14:42:40;7.70;;;6.20;;
3149;SDS011;32503;47.748;8.960;2023-02-12T14:47:59;6.03;;;5.30;;
3149;SDS011;32503;47.748;8.960;2023-02-12T14:50:28;8.23;;;5.07;;
3149;SDS011;32503;47.748;8.960;2023-02-12T14:53:05;5.83;;;5.30;;
3149;SDS011;32503;47.748;8.960;2023-02-12T14:55:48;6.70;;;5.20;;
3149;SDS011;32503;47.748;8.960;2023-02-12T14:58:20;8.23;;;5.87;;
3149;SDS011;32503;47.748;8.960;2023-02-12T15:00:49;7.33;;;5.63;;
3149;SDS011;32503;47.748;8.960;2023-02-12T15:03:22;6.80;;;5.73;;
3149;SDS011;32503;47.748;8.960;2023-02-12T15:05:57;11.97;;;6.00;;
3149;SDS011;32503;47.748;8.960;2023-02-12T15:08:35;6.40;;;5.70;;
3149;SDS011;32503;47.748;8.960;2023-02-12T15:11:20;7.73;;;5.80;;
3149;SDS011;32503;47.748;8.960;2023-02-12T15:14:01;5.83;;;4.77;;
3149;SDS011;32503;47.748;8.960;2023-02-12T15:16:37;5.90;;;5.20;;
3149;SDS011;32503;47.748;8.960;2023-02-12T15:19:19;5.20;;;4.83;;
3149;SDS011;32503;47.748;8.960;2023-02-12T15:22:03;5.30;;;4.90;;
3149;SDS011;32503;47.748;8.960;2023-02-12T15:24:45;7.20;;;5.90;;
3149;SDS011;32503;47.748;8.960;2023-02-12T15:27:13;9.50;;;6.90;;
3149;SDS011;32503;47.748;8.960;2023-02-12T15:29:43;6.67;;;5.97;;
3149;SDS011;32503;47.748;8.960;2023-02-12T15:32:15;9.40;;;6.77;;
3149;SDS011;32503;47.748;8.960;2023-02-12T15:34:47;6.00;;;5.40;;
3149;SDS011;32503;47.748;8.960;2023-02-12T15:37:18;8.70;;;5.70;;
3149;SDS011;32503;47.748;8.960;2023-02-12T15:39:50;8.23;;;6.63;;
3149;SDS011;32503;47.748;8.960;2023-02-12T15:42:25;7.10;;;5.73;;
3149;SDS011;32503;47.748;8.960;2023-02-12T15:47:56;9.60;;;6.80;;
3149;SDS011;32503;47.748;8.960;2023-02-12T15:50:43;10.00;;;6.80;;
3149;SDS011;32503;47.748;8.960;2023-02-12T15:53:14;10.03;;;7.20;;
3149;SDS011;32503;47.748;8.960;2023-02-12T15:55:43;8.10;;;7.30;;
3149;SDS011;32503;47.748;8.960;2023-02-12T15:58:19;12.03;;;8.23;;
3149;SDS011;32503;47.748;8.960;2023-02-12T16:00:51;8.30;;;7.50;;
3149;SDS011;32503;47.748;8.960;2023-02-12T16:03:20;9.53;;;6.97;;